Time;durP1;ratioP1;P1;durP2;ratioP2;P2;SDS_P1;SDS_P2;PMS_P1;PMS_P2;Temp;Humidity;BMP_temperature;BMP_pressure;BME280_temperature;BME280_humidity;BME280_pressure;Samples;Min_cycle;Max_cycle;Signal;HPM_P1;HPM_P2
2023/04/19 00:00:34;;;;;;;1.70;1.35;;;;;;;11.49;63.51;101962.06;6365528;23;20095;-79
2023/04/19 00:03:05;;;;;;;1.88;1.75;;;;;;;11.59;63.02;101961.06;6372846;23;20008;-81
2023/04/19 00:05:37;;;;;;;1.40;1.30;;;;;;;11.71;62.40;101959.19;6392146;23;20041;-79
2023/04/19 00:08:07;;;;;;;2.05;1.58;;;;;;;11.62;62.84;101960.16;6395699;23;20005;-79
2023/04/19 00:10:38;;;;;;;5.72;2.00;;;;;;;11.51;63.96;101962.91;6364682;23;20021;-79
2023/04/19 00:13:09;;;;;;;0.95;0.95;;;;;;;11.53;63.50;101953.25;6383296;23;20010;-80
2023/04/19 00:15:39;;;;;;;1.92;1.17;;;;;;;11.45;63.92;101962.97;6398746;23;20019;-80
2023/04/19 00:18:10;;;;;;;2.35;1.63;;;;;;;11.64;62.88;101959.25;6400861;23;20004;-79
2023/04/19 00:20:40;;;;;;;4.25;2.53;;;;;;;11.58;63.50;101959.34;6397162;23;20023;-80
2023/04/19 00:23:11;;;;;;;0.82;0.82;;;;;;;11.54;64.01;101962.88;6372210;23;20060;-80
2023/04/19 00:25:41;;;;;;;0.95;0.95;;;;;;;11.71;63.13;101964.44;6397239;23;20055;-80
2023/04/19 00:28:12;;;;;;;1.52;1.35;;;;;;;11.51;64.11;101968.19;6372032;23;20103;-80
2023/04/19 00:30:42;;;;;;;0.93;0.93;;;;;;;11.54;63.94;101968.13;6378613;23;20017;-80
2023/04/19 00:33:13;;;;;;;1.00;1.00;;;;;;;11.53;64.00;101957.63;6373418;23;20035;-80
2023/04/19 00:35:43;;;;;;;0.82;0.82;;;;;;;11.58;63.59;101966.31;6394634;23;20028;-80
2023/04/19 00:38:14;;;;;;;1.02;1.02;;;;;;;11.64;63.20;101964.50;6394913;23;20087;-80
2023/04/19 00:40:45;;;;;;;4.15;1.38;;;;;;;11.70;63.36;101962.69;6369463;23;20020;-80
2023/04/19 00:43:17;;;;;;;0.85;0.85;;;;;;;11.68;62.84;101960.09;6379798;23;20617;-80
2023/04/19 00:45:48;;;;;;;1.30;1.25;;;;;;;11.82;62.38;101957.28;6394895;23;20009;-79
2023/04/19 00:48:19;;;;;;;0.68;0.68;;;;;;;11.79;62.66;101950.31;6390995;23;20059;-80
2023/04/19 00:50:50;;;;;;;1.58;1.48;;;;;;;11.80;62.62;101951.19;6398685;23;20017;-80
2023/04/19 00:53:20;;;;;;;1.58;1.10;;;;;;;11.79;63.18;101946.81;6402950;23;20001;-80
2023/04/19 00:55:51;;;;;;;0.73;0.73;;;;;;;11.67;63.60;101957.47;6395564;23;20096;-79
2023/04/19 00:58:22;;;;;;;1.30;1.20;;;;;;;11.70;63.15;101957.44;6402772;23;20346;-78
2023/04/19 01:00:52;;;;;;;1.40;1.25;;;;;;;11.44;64.72;101948.13;6394848;23;20013;-80
2023/04/19 01:03:25;;;;;;;0.75;0.75;;;;;;;11.50;64.10;101948.03;6403077;23;20708;-80
2023/04/19 01:05:56;;;;;;;2.35;1.70;;;;;;;11.50;64.51;101945.41;6398169;23;20017;-80
2023/04/19 01:08:27;;;;;;;1.73;1.63;;;;;;;11.67;63.91;101939.09;6366927;23;20009;-80
2023/04/19 01:10:57;;;;;;;1.25;1.15;;;;;;;11.61;64.50;101943.50;6396370;23;20529;-80
2023/04/19 01:13:28;;;;;;;2.45;1.08;;;;;;;11.71;63.38;101946.91;6395012;23;20089;-80
2023/04/19 01:15:59;;;;;;;1.77;1.42;;;;;;;11.62;63.94;101940.00;6372624;23;20025;-80
2023/04/19 01:18:36;;;;;;;1.38;0.88;;;;;;;11.64;64.19;101948.75;6379772;23;20009;-80
2023/04/19 01:21:07;;;;;;;1.42;1.30;;;;;;;11.69;63.56;101947.81;6405763;23;20363;-80
2023/04/19 01:23:38;;;;;;;1.05;1.00;;;;;;;11.74;63.44;101943.38;6403337;23;20084;-80
2023/04/19 01:26:08;;;;;;;1.30;1.20;;;;;;;11.58;64.54;101938.31;6393834;23;20044;-80
2023/04/19 01:28:39;;;;;;;2.20;0.98;;;;;;;11.70;63.98;101932.03;6392763;23;20025;-80
2023/04/19 01:31:09;;;;;;;0.73;0.73;;;;;;;11.61;64.16;101930.34;6390691;23;20051;-80
2023/04/19 01:33:40;;;;;;;1.13;1.13;;;;;;;11.78;63.41;101930.16;6367697;23;20021;-80
2023/04/19 01:36:11;;;;;;;1.92;1.75;;;;;;;11.75;63.68;101934.59;6366568;23;20013;-80
2023/04/19 01:38:42;;;;;;;2.30;1.80;;;;;;;11.77;63.81;101927.56;6368182;23;20033;-80
2023/04/19 01:41:13;;;;;;;1.92;1.70;;;;;;;11.79;63.32;101925.75;6392420;23;20461;-80
2023/04/19 01:43:43;;;;;;;0.82;0.82;;;;;;;11.56;64.69;101933.97;6391977;23;20079;-80
2023/04/19 01:46:13;;;;;;;1.15;1.00;;;;;;;11.59;64.24;101929.53;6368854;23;20067;-79
2023/04/19 01:48:44;;;;;;;1.25;1.15;;;;;;;11.55;64.87;101927.81;6367605;23;20031;-80
2023/04/19 01:51:16;;;;;;;1.23;1.13;;;;;;;11.59;64.18;101928.66;6368475;23;20024;-80
2023/04/19 01:53:52;;;;;;;1.20;1.05;;;;;;;11.74;63.94;101925.81;6367629;23;20030;-79
2023/04/19 01:56:23;;;;;;;1.05;1.05;;;;;;;11.48;65.63;101926.16;6388546;23;20377;-79
2023/04/19 01:58:53;;;;;;;1.33;1.23;;;;;;;11.54;64.96;101919.97;6367118;23;20021;-80
2023/04/19 02:01:24;;;;;;;1.35;1.25;;;;;;;11.54;65.28;101922.59;6365322;23;20013;-80
2023/04/19 02:03:54;;;;;;;1.40;1.30;;;;;;;11.44;65.77;101911.31;6393879;23;20016;-79
2023/04/19 02:06:25;;;;;;;1.02;0.98;;;;;;;11.42;65.92;101915.72;6379206;23;20027;-80
2023/04/19 02:08:56;;;;;;;2.05;1.15;;;;;;;11.50;65.59;101914.72;6399475;23;20037;-80
2023/04/19 02:11:26;;;;;;;3.28;2.00;;;;;;;11.27;66.98;101915.00;6394356;23;20346;-80
2023/04/19 02:13:57;;;;;;;0.75;0.75;;;;;;;11.24;67.30;101909.78;6395604;23;20025;-80
2023/04/19 02:16:27;;;;;;;2.15;1.95;;;;;;;11.28;67.11;101902.72;6391673;23;20071;-80
2023/04/19 02:18:58;;;;;;;1.92;1.83;;;;;;;11.30;66.71;101900.97;6373807;23;20465;-80
2023/04/19 02:21:28;;;;;;;2.70;1.92;;;;;;;11.45;66.13;101913.91;6367628;23;20017;-80
2023/04/19 02:23:59;;;;;;;0.60;0.60;;;;;;;11.48;65.58;101910.38;6403696;23;20427;-81
2023/04/19 02:26:30;;;;;;;1.05;1.02;;;;;;;11.46;65.51;101906.91;6373979;23;20798;-81
2023/04/19 02:29:00;;;;;;;1.27;1.27;;;;;;;11.48;66.06;101910.38;6432065;23;20016;-82
2023/04/19 02:31:35;;;;;;;0.85;0.85;;;;;;;11.40;66.19;101913.13;6398694;23;20021;-82
2023/04/19 02:34:05;;;;;;;2.58;1.63;;;;;;;11.48;65.98;101918.25;6399140;23;20557;-81
2023/04/19 02:36:36;;;;;;;3.05;1.55;;;;;;;11.39;67.05;101913.09;6412003;23;20001;-81
2023/04/19 02:39:06;;;;;;;1.05;1.05;;;;;;;11.48;66.50;101913.91;6400069;23;20032;-82
2023/04/19 02:41:37;;;;;;;0.93;0.93;;;;;;;11.24;68.25;101916.81;6425594;23;20013;-82
2023/04/19 02:44:07;;;;;;;1.02;0.95;;;;;;;11.44;66.15;101909.53;6401896;22;20316;-82
2023/04/19 02:46:40;;;;;;;0.60;0.60;;;;;;;11.49;65.74;101910.34;6412251;23;20079;-81
2023/04/19 02:49:10;;;;;;;1.77;1.67;;;;;;;11.32;67.51;101907.94;6424869;22;20017;-81
2023/04/19 02:51:41;;;;;;;1.85;1.08;;;;;;;11.33;68.10;101912.31;6425553;23;20416;-82
2023/04/19 02:54:12;;;;;;;1.65;1.55;;;;;;;11.27;68.07;101907.13;6429726;23;20031;-81
2023/04/19 02:56:43;;;;;;;2.08;1.58;;;;;;;11.39;67.90;101911.38;6399573;23;20193;-82
2023/04/19 02:59:13;;;;;;;0.90;0.90;;;;;;;11.48;66.92;101910.38;6396868;23;20027;-82
2023/04/19 03:01:44;;;;;;;0.65;0.63;;;;;;;11.34;68.45;101914.06;6434541;23;20488;-81
2023/04/19 03:04:15;;;;;;;2.58;1.60;;;;;;;11.34;68.95;101910.53;6428045;22;20055;-81
2023/04/19 03:06:46;;;;;;;2.85;2.00;;;;;;;11.38;67.83;101909.63;6400174;23;20015;-81
2023/04/19 03:09:16;;;;;;;0.85;0.60;;;;;;;11.44;67.54;101913.94;6404875;23;20110;-81
2023/04/19 03:11:47;;;;;;;1.23;1.02;;;;;;;11.42;68.75;101913.09;6424279;23;20642;-81
2023/04/19 03:14:18;;;;;;;2.30;2.10;;;;;;;11.55;66.86;101905.94;6430216;22;20031;-81
2023/04/19 03:16:48;;;;;;;0.73;0.73;;;;;;;11.35;68.71;101907.03;6414052;23;20069;-81
2023/04/19 03:19:19;;;;;;;0.63;0.63;;;;;;;11.52;67.11;101905.94;6403829;22;20104;-81
2023/04/19 03:21:49;;;;;;;1.15;1.15;;;;;;;11.53;67.99;101903.28;6402648;23;20005;-81
2023/04/19 03:24:27;;;;;;;2.13;1.38;;;;;;;11.23;70.24;101902.78;6399622;22;20012;-80
2023/04/19 03:27:02;;;;;;;0.80;0.70;;;;;;;11.27;69.86;101901.88;6377425;23;20005;-82
2023/04/19 03:29:32;;;;;;;1.05;1.05;;;;;;;11.27;69.51;101891.38;6401884;23;20013;-81
2023/04/19 03:32:06;;;;;;;4.03;1.73;;;;;;;11.25;70.13;101886.97;6435161;23;20509;-82
2023/04/19 03:34:37;;;;;;;1.73;1.63;;;;;;;11.30;69.33;101888.69;6403499;23;20043;-81
2023/04/19 03:37:07;;;;;;;2.15;2.03;;;;;;;11.31;69.06;101895.69;6436053;23;20083;-80
2023/04/19 03:39:38;;;;;;;1.02;1.02;;;;;;;11.41;68.22;101895.56;6425822;23;20016;-81
2023/04/19 03:42:08;;;;;;;1.33;1.23;;;;;;;11.20;70.67;101894.06;6412451;23;20491;-81
2023/04/19 03:44:39;;;;;;;1.42;1.42;;;;;;;11.18;70.88;101894.09;6398451;23;20422;-82
2023/04/19 03:47:09;;;;;;;1.83;1.73;;;;;;;11.36;69.34;101892.16;6427191;23;20000;-82
2023/04/19 03:49:40;;;;;;;2.63;1.85;;;;;;;11.41;68.30;101888.53;6430085;23;20013;-81
2023/04/19 03:52:10;;;;;;;1.05;1.05;;;;;;;11.21;69.96;101880.03;6437215;23;20009;-81
2023/04/19 03:54:41;;;;;;;1.45;1.35;;;;;;;11.32;69.56;101889.53;6403438;23;20012;-80
2023/04/19 03:57:13;;;;;;;2.70;2.40;;;;;;;11.26;70.12;101889.63;6436228;23;20005;-81
2023/04/19 03:59:46;;;;;;;0.73;0.73;;;;;;;11.17;70.48;101885.31;6375894;23;20043;-80
2023/04/19 04:02:16;;;;;;;0.93;0.93;;;;;;;11.32;69.45;101897.41;6399561;23;20035;-80
2023/04/19 04:04:53;;;;;;;1.17;1.13;;;;;;;11.23;69.62;101894.91;6400108;23;20013;-82
2023/04/19 04:07:24;;;;;;;12.63;1.35;;;;;;;11.23;69.41;101900.16;6401568;23;20013;-81
2023/04/19 04:09:55;;;;;;;4.38;1.80;;;;;;;11.00;70.95;101887.25;6385881;23;20013;-82
2023/04/19 04:12:25;;;;;;;0.82;0.82;;;;;;;11.21;69.10;101890.56;6373211;23;20016;-81
2023/04/19 04:14:59;;;;;;;1.00;1.00;;;;;;;11.19;69.14;101893.19;6397064;23;20017;-82
2023/04/19 04:17:29;;;;;;;1.05;1.05;;;;;;;11.27;68.74;101891.38;6407739;23;20008;-80
2023/04/19 04:20:00;;;;;;;1.50;1.45;;;;;;;11.33;68.53;101888.66;6397972;23;20024;-80
2023/04/19 04:22:31;;;;;;;0.75;0.75;;;;;;;11.20;69.21;101894.91;6432742;23;20001;-80
2023/04/19 04:25:02;;;;;;;1.50;1.42;;;;;;;11.10;69.48;101888.91;6396130;23;20040;-82
2023/04/19 04:27:32;;;;;;;2.22;1.75;;;;;;;11.06;69.83;101894.19;6423927;23;20004;-80
2023/04/19 04:30:04;;;;;;;1.23;1.13;;;;;;;10.99;70.24;101891.66;6421368;23;20012;-79
2023/04/19 04:32:34;;;;;;;1.35;1.30;;;;;;;11.10;69.69;101893.31;6400186;23;20250;-80
2023/04/19 04:35:07;;;;;;;2.05;1.95;;;;;;;11.22;68.40;101887.91;6401137;23;20311;-79
2023/04/19 04:37:37;;;;;;;1.65;1.38;;;;;;;11.16;68.84;101886.19;6441506;23;20039;-80
2023/04/19 04:40:08;;;;;;;0.60;0.60;;;;;;;11.07;69.79;101891.59;6403327;23;20020;-81
2023/04/19 04:42:39;;;;;;;1.10;1.10;;;;;;;11.13;68.89;101886.25;6429898;23;20005;-81
2023/04/19 04:45:10;;;;;;;1.48;1.38;;;;;;;11.19;68.44;101895.84;6405216;23;20020;-81
2023/04/19 04:47:40;;;;;;;3.25;1.55;;;;;;;11.23;68.54;101889.63;6442883;23;20032;-81
2023/04/19 04:50:11;;;;;;;1.83;1.73;;;;;;;11.10;69.33;101893.31;6427981;23;20043;-81
2023/04/19 04:52:41;;;;;;;0.82;0.82;;;;;;;10.95;70.35;101895.16;6440697;23;20380;-81
2023/04/19 04:55:12;;;;;;;0.73;0.73;;;;;;;11.13;68.67;101893.25;6426928;23;20016;-81
2023/04/19 04:57:42;;;;;;;0.50;0.50;;;;;;;11.12;68.65;101896.75;6439982;23;20009;-81
2023/04/19 05:00:13;;;;;;;1.33;1.15;;;;;;;11.14;68.54;101901.13;6400552;23;20082;-81
2023/04/19 05:02:43;;;;;;;4.82;0.80;;;;;;;11.13;68.27;101903.75;6425183;23;20230;-81
2023/04/19 05:05:14;;;;;;;3.13;1.90;;;;;;;11.16;68.12;101901.09;6427560;23;20032;-81
2023/04/19 05:07:44;;;;;;;0.63;0.63;;;;;;;11.12;68.28;101897.63;6407106;23;20012;-81
2023/04/19 05:10:15;;;;;;;4.13;2.30;;;;;;;11.22;67.88;101898.41;6434833;23;20021;-81
2023/04/19 05:12:45;;;;;;;0.60;0.60;;;;;;;11.13;68.28;101901.13;6419271;23;20473;-81
2023/04/19 05:15:16;;;;;;;1.38;1.27;;;;;;;11.20;68.32;101897.53;6409744;23;20233;-81
2023/04/19 05:17:46;;;;;;;0.85;0.85;;;;;;;11.05;68.42;101895.09;6445641;23;20004;-81
2023/04/19 05:20:17;;;;;;;4.57;1.15;;;;;;;10.96;68.95;101891.66;6406909;23;20071;-81
2023/04/19 05:22:47;;;;;;;1.75;1.65;;;;;;;11.16;67.75;101895.84;6445201;23;20062;-81
2023/04/19 05:25:18;;;;;;;1.35;0.90;;;;;;;11.07;68.10;101893.31;6431199;23;20512;-81
2023/04/19 05:27:48;;;;;;;0.73;0.73;;;;;;;11.03;68.17;101900.34;6408268;23;20004;-81
2023/04/19 05:30:19;;;;;;;1.63;1.52;;;;;;;11.18;67.53;101887.06;6403966;23;20017;-81
2023/04/19 05:32:51;;;;;;;1.35;1.35;;;;;;;11.09;67.92;101894.19;6407645;23;20045;-81
2023/04/19 05:35:21;;;;;;;0.50;0.50;;;;;;;11.15;67.63;101886.22;6429219;23;20023;-81
2023/04/19 05:37:52;;;;;;;1.13;1.02;;;;;;;11.22;67.16;101892.28;6408188;23;20013;-81
2023/04/19 05:40:23;;;;;;;1.13;1.02;;;;;;;11.16;67.37;101875.69;6430561;23;20016;-81
2023/04/19 05:42:53;;;;;;;0.95;0.82;;;;;;;11.13;67.08;101885.38;6441273;23;20076;-81
2023/04/19 05:45:25;;;;;;;1.73;0.70;;;;;;;11.16;66.73;101887.97;6401778;23;20016;-81
2023/04/19 05:47:55;;;;;;;1.60;0.95;;;;;;;10.97;66.62;101882.03;6440759;23;20017;-81
2023/04/19 05:50:25;;;;;;;2.40;1.13;;;;;;;11.03;66.06;101893.34;6400232;23;20027;-81
2023/04/19 05:52:56;;;;;;;0.88;0.88;;;;;;;11.11;65.77;101897.66;6412896;23;20008;-81
2023/04/19 05:55:26;;;;;;;0.57;0.57;;;;;;;11.05;65.38;101889.81;6398779;23;20020;-81
2023/04/19 05:57:57;;;;;;;0.30;0.30;;;;;;;11.09;64.96;101895.03;6404018;23;20085;-81
2023/04/19 06:00:28;;;;;;;1.27;1.10;;;;;;;10.91;65.44;101896.09;6428977;22;20020;-81
2023/04/19 06:02:59;;;;;;;0.82;0.82;;;;;;;10.69;65.79;101898.94;6377734;23;20060;-81
2023/04/19 06:05:29;;;;;;;0.75;0.75;;;;;;;10.88;65.76;101893.50;6400008;23;20027;-81
2023/04/19 06:07:59;;;;;;;0.88;0.88;;;;;;;10.88;65.37;101906.63;6403965;23;20011;-81
2023/04/19 06:10:30;;;;;;;0.60;0.60;;;;;;;10.76;65.38;101901.50;6402785;23;20016;-81
2023/04/19 06:13:00;;;;;;;0.40;0.40;;;;;;;10.84;64.76;101900.53;6376715;23;20404;-81
2023/04/19 06:15:31;;;;;;;1.40;1.30;;;;;;;10.80;64.44;101903.19;6404369;23;20419;-81
2023/04/19 06:18:01;;;;;;;1.30;1.15;;;;;;;10.77;64.57;101905.88;6430976;23;20008;-81
2023/04/19 06:20:36;;;;;;;0.65;0.65;;;;;;;10.98;64.13;101908.28;6403273;23;20219;-81
2023/04/19 06:23:06;;;;;;;0.85;0.85;;;;;;;10.77;64.24;101904.09;6404837;23;20001;-81
2023/04/19 06:25:37;;;;;;;0.98;0.60;;;;;;;10.91;63.73;101900.50;6402629;23;20512;-81
2023/04/19 06:28:07;;;;;;;0.60;0.60;;;;;;;10.77;63.11;101901.47;6441998;23;20008;-82
2023/04/19 06:30:38;;;;;;;0.65;0.65;;;;;;;10.73;63.80;101901.50;6373566;23;20118;-81
2023/04/19 06:33:08;;;;;;;1.52;1.38;;;;;;;10.96;63.41;101899.53;6404648;23;20008;-81
2023/04/19 06:35:39;;;;;;;0.40;0.40;;;;;;;10.89;62.58;101900.50;6401491;23;20395;-81
2023/04/19 06:38:09;;;;;;;0.40;0.40;;;;;;;10.84;62.56;101891.78;6405624;23;20013;-81
2023/04/19 06:40:40;;;;;;;1.65;1.48;;;;;;;10.92;62.54;101896.97;6426227;23;20298;-82
2023/04/19 06:43:10;;;;;;;0.38;0.38;;;;;;;10.89;62.25;101897.00;6398410;23;20037;-81
2023/04/19 06:45:41;;;;;;;1.00;1.00;;;;;;;10.90;61.54;101896.97;6396880;23;20013;-80
2023/04/19 06:48:11;;;;;;;0.73;0.73;;;;;;;10.77;62.00;101898.00;6403160;23;20440;-82
2023/04/19 06:50:42;;;;;;;0.55;0.55;;;;;;;10.98;61.44;101894.28;6427159;23;20016;-81
2023/04/19 06:53:12;;;;;;;0.82;0.60;;;;;;;10.92;61.46;101895.22;6378576;23;20035;-81
2023/04/19 06:55:44;;;;;;;0.80;0.80;;;;;;;10.94;61.65;101903.97;6405852;23;20016;-81
2023/04/19 06:58:14;;;;;;;0.50;0.50;;;;;;;10.91;60.67;101896.09;6383656;23;20009;-82
2023/04/19 07:00:45;;;;;;;0.68;0.68;;;;;;;10.99;61.12;101890.78;6435651;23;20017;-81
2023/04/19 07:03:15;;;;;;;1.13;1.13;;;;;;;10.90;60.40;101898.75;6442089;23;20035;-81
2023/04/19 07:05:46;;;;;;;0.65;0.65;;;;;;;11.12;60.37;101904.63;6405083;23;20340;-81
2023/04/19 07:08:17;;;;;;;3.15;0.70;;;;;;;11.05;60.19;101897.72;6443353;23;20012;-82
2023/04/19 07:10:47;;;;;;;0.55;0.55;;;;;;;11.15;59.54;101896.72;6405519;23;20396;-81
2023/04/19 07:13:17;;;;;;;0.75;0.75;;;;;;;10.95;59.48;101894.31;6436989;23;20035;-81
2023/04/19 07:15:48;;;;;;;0.30;0.30;;;;;;;11.11;59.94;101895.91;6402755;23;20013;-81
2023/04/19 07:18:18;;;;;;;0.75;0.75;;;;;;;11.08;59.00;101895.06;6432687;23;20020;-82
2023/04/19 07:20:49;;;;;;;0.30;0.30;;;;;;;11.02;58.25;101896.88;6431146;22;20012;-82
2023/04/19 07:23:19;;;;;;;1.52;1.42;;;;;;;11.18;58.16;101887.06;6428403;23;20000;-82
2023/04/19 07:25:50;;;;;;;0.73;0.73;;;;;;;11.11;58.71;101890.66;6406281;23;20080;-79
2023/04/19 07:28:20;;;;;;;0.98;0.55;;;;;;;11.08;57.95;101895.06;6412571;23;20206;-80
2023/04/19 07:30:51;;;;;;;0.68;0.68;;;;;;;11.03;57.89;101889.84;6404983;23;20012;-79
2023/04/19 07:33:23;;;;;;;0.70;0.70;;;;;;;11.11;57.85;101889.78;6401785;23;20020;-80
2023/04/19 07:35:55;;;;;;;0.80;0.77;;;;;;;11.17;57.43;101884.47;6403894;23;20051;-80
2023/04/19 07:38:25;;;;;;;0.70;0.70;;;;;;;11.21;57.74;101886.16;6402077;23;20004;-80
2023/04/19 07:40:56;;;;;;;1.00;0.50;;;;;;;11.15;57.47;101894.09;6433318;23;20017;-80
2023/04/19 07:43:28;;;;;;;2.08;1.60;;;;;;;11.11;56.69;101885.38;6434004;23;19997;-79
2023/04/19 07:45:59;;;;;;;0.50;0.50;;;;;;;11.09;57.38;101894.19;6429160;23;20399;-79
2023/04/19 07:48:30;;;;;;;1.63;1.00;;;;;;;11.15;56.59;101894.09;6425524;23;20019;-79
2023/04/19 07:51:11;;;;;;;0.70;0.65;;;;;;;11.15;56.68;101886.22;6424632;23;20027;-81
2023/04/19 07:53:42;;;;;;;0.93;0.93;;;;;;;11.27;56.63;101901.88;6435187;23;20032;-79
2023/04/19 07:56:14;;;;;;;0.60;0.60;;;;;;;11.27;56.56;101896.63;6377413;23;20366;-79
2023/04/19 07:58:44;;;;;;;1.05;0.95;;;;;;;11.28;55.27;101893.06;6403781;23;20013;-79
2023/04/19 08:01:16;;;;;;;0.77;0.70;;;;;;;11.28;55.33;101885.19;6401745;23;20095;-80
2023/04/19 08:03:46;;;;;;;1.02;0.95;;;;;;;11.42;55.64;101889.44;6404035;23;20019;-80
2023/04/19 08:06:17;;;;;;;2.40;0.98;;;;;;;11.32;55.03;101891.31;6404603;23;20032;-80
2023/04/19 08:08:47;;;;;;;0.77;0.77;;;;;;;11.41;55.27;101882.44;6375054;23;20021;-80
2023/04/19 08:11:18;;;;;;;0.35;0.35;;;;;;;11.49;55.33;101884.06;6399976;23;20017;-80
2023/04/19 08:13:48;;;;;;;0.70;0.70;;;;;;;11.45;53.95;101876.25;6436656;23;20017;-80
2023/04/19 08:16:19;;;;;;;2.78;1.05;;;;;;;11.48;54.61;101874.47;6428105;23;20492;-80
2023/04/19 08:18:50;;;;;;;0.43;0.43;;;;;;;11.56;53.90;101871.72;6402005;23;20022;-80
2023/04/19 08:21:21;;;;;;;0.70;0.70;;;;;;;11.54;54.01;101872.66;6427276;23;20067;-80
2023/04/19 08:23:51;;;;;;;1.13;1.13;;;;;;;11.56;54.02;101871.72;6381022;23;1081238;-80
2023/04/19 08:26:22;;;;;;;0.98;0.95;;;;;;;11.69;54.88;101876.84;6403889;23;20048;-80
2023/04/19 08:28:52;;;;;;;1.88;0.95;;;;;;;11.72;54.32;101868.91;6404018;23;20047;-80
2023/04/19 08:31:23;;;;;;;0.95;0.85;;;;;;;11.82;54.06;101865.25;6399920;23;20082;-80
2023/04/19 08:33:53;;;;;;;1.20;0.88;;;;;;;11.80;54.15;101870.56;6428223;23;20072;-80
2023/04/19 08:36:25;;;;;;;0.50;0.50;;;;;;;11.85;52.17;101857.34;6430537;23;20091;-80
2023/04/19 08:38:56;;;;;;;0.82;0.82;;;;;;;11.85;51.59;101865.22;6410648;23;20016;-80
2023/04/19 08:41:29;;;;;;;0.50;0.50;;;;;;;11.80;51.38;101864.41;6412971;23;20031;-80
2023/04/19 08:44:01;;;;;;;0.50;0.50;;;;;;;11.97;51.67;101866.84;6437221;23;20787;-80
2023/04/19 08:46:31;;;;;;;0.47;0.47;;;;;;;12.00;50.76;101853.63;6434667;23;20309;-80
2023/04/19 08:49:04;;;;;;;0.70;0.70;;;;;;;11.92;49.20;101858.97;6420151;23;20024;-81
2023/04/19 08:51:37;;;;;;;0.63;0.63;;;;;;;11.93;50.59;101847.56;6439553;23;20250;-80
2023/04/19 08:54:09;;;;;;;0.40;0.40;;;;;;;12.09;51.52;101850.84;6440346;22;20094;-80
2023/04/19 08:56:40;;;;;;;0.63;0.63;;;;;;;12.09;51.21;101850.00;6442672;23;20381;-80
2023/04/19 08:59:11;;;;;;;0.65;0.65;;;;;;;12.19;49.60;101858.63;6405886;22;20024;-80
2023/04/19 09:01:42;;;;;;;0.80;0.80;;;;;;;12.11;48.81;101853.47;6403521;23;20055;-79
2023/04/19 09:04:12;;;;;;;0.35;0.35;;;;;;;12.16;48.36;101846.38;6404073;22;20347;-79
2023/04/19 09:06:43;;;;;;;0.40;0.40;;;;;;;12.21;48.96;101839.28;6405077;23;20016;-80
2023/04/19 09:09:17;;;;;;;1.35;1.08;;;;;;;12.31;48.19;101844.38;6428040;23;20488;-80
2023/04/19 09:11:48;;;;;;;0.40;0.40;;;;;;;12.35;48.18;101849.59;6378891;23;20014;-80
2023/04/19 09:14:20;;;;;;;0.40;0.40;;;;;;;12.25;48.42;101840.97;6403089;23;20104;-81
2023/04/19 09:16:51;;;;;;;0.68;0.68;;;;;;;12.31;48.07;101840.00;6403777;23;20512;-81
2023/04/19 09:19:21;;;;;;;0.57;0.57;;;;;;;12.28;46.85;101846.16;6433583;22;20012;-80
2023/04/19 09:21:52;;;;;;;0.45;0.45;;;;;;;12.32;47.36;101844.34;6439526;23;20016;-80
2023/04/19 09:24:38;;;;;;;0.93;0.93;;;;;;;12.38;47.42;101836.38;6426724;22;20087;-80
2023/04/19 09:27:11;;;;;;;0.45;0.45;;;;;;;12.33;46.46;101837.34;6442069;23;20668;-80
2023/04/19 09:29:51;;;;;;;0.67;0.57;;;;;;;12.39;47.09;101848.66;6400949;23;20109;-80
2023/04/19 09:32:22;;;;;;;0.63;0.63;;;;;;;12.47;46.21;101843.25;6409345;23;20243;-80
2023/04/19 09:34:58;;;;;;;1.20;1.20;;;;;;;12.40;46.87;101839.84;6401873;23;20016;-80
2023/04/19 09:37:28;;;;;;;2.42;1.90;;;;;;;12.41;46.48;101840.72;6412200;23;20030;-80
2023/04/19 09:39:59;;;;;;;0.85;0.85;;;;;;;12.51;44.79;101842.31;6376639;23;20015;-80
2023/04/19 09:42:45;;;;;;;0.40;0.40;;;;;;;12.52;45.84;101835.25;6402346;23;20009;-80
2023/04/19 09:45:16;;;;;;;0.93;0.63;;;;;;;12.51;44.75;101852.84;6400968;23;20018;-80
2023/04/19 09:48:01;;;;;;;0.70;0.70;;;;;;;12.62;43.54;101841.22;6440687;23;20028;-81
2023/04/19 09:50:32;;;;;;;0.85;0.85;;;;;;;12.52;44.92;101832.63;6427236;23;20453;-80
2023/04/19 09:53:02;;;;;;;0.70;0.70;;;;;;;12.60;43.92;101825.47;6440340;23;20011;-80
2023/04/19 09:55:36;;;;;;;0.50;0.50;;;;;;;12.70;45.34;101827.03;6403331;23;20072;-80
2023/04/19 09:58:06;;;;;;;0.20;0.20;;;;;;;12.67;44.04;101827.09;6440307;23;20008;-80
2023/04/19 10:00:39;;;;;;;0.60;0.60;;;;;;;12.67;44.28;101826.25;6401004;23;20028;-80
2023/04/19 10:03:11;;;;;;;0.60;0.60;;;;;;;12.72;43.49;101825.25;6377197;23;20455;-80
2023/04/19 10:05:43;;;;;;;0.73;0.73;;;;;;;12.74;42.72;101827.84;6400174;23;20075;-80
2023/04/19 10:08:13;;;;;;;0.30;0.30;;;;;;;12.72;42.09;101837.53;6429294;23;20008;-81
2023/04/19 10:10:48;;;;;;;0.55;0.55;;;;;;;12.76;41.82;101826.06;6377424;23;20046;-80
2023/04/19 10:13:22;;;;;;;0.50;0.50;;;;;;;12.78;41.53;101821.63;6401283;23;20005;-80
2023/04/19 10:15:52;;;;;;;0.22;0.22;;;;;;;12.79;40.07;101820.72;6384740;23;20012;-80
2023/04/19 10:18:23;;;;;;;0.68;0.68;;;;;;;12.89;41.97;101817.03;6405387;23;20004;-80
2023/04/19 10:21:01;;;;;;;0.20;0.20;;;;;;;12.98;41.96;101812.47;6410622;23;20020;-80
2023/04/19 10:23:32;;;;;;;0.30;0.30;;;;;;;13.04;42.37;101814.97;6404829;23;20481;-80
2023/04/19 10:26:03;;;;;;;0.80;0.80;;;;;;;13.05;41.62;101816.72;6406983;23;20016;-80
2023/04/19 10:28:35;;;;;;;0.40;0.40;;;;;;;12.93;41.01;101820.47;6406791;23;20008;-80
2023/04/19 10:31:11;;;;;;;0.50;0.50;;;;;;;12.97;41.21;101808.09;6405404;23;20024;-80
2023/04/19 10:33:42;;;;;;;0.55;0.55;;;;;;;13.01;40.59;101804.53;6406487;23;20441;-80
2023/04/19 10:36:16;;;;;;;0.40;0.40;;;;;;;13.05;40.31;101809.72;6430164;23;20072;-80
2023/04/19 10:38:50;;;;;;;0.20;0.20;;;;;;;12.98;39.00;101804.56;6414628;23;20027;-80
2023/04/19 10:41:21;;;;;;;0.65;0.60;;;;;;;13.07;40.66;101804.41;6430929;22;20028;-82
2023/04/19 10:43:56;;;;;;;0.30;0.30;;;;;;;13.23;40.78;101800.53;6439504;23;20289;-81
2023/04/19 10:46:28;;;;;;;0.65;0.65;;;;;;;13.25;40.22;101807.56;6429633;23;20051;-81
2023/04/19 10:49:00;;;;;;;0.70;0.70;;;;;;;13.16;39.15;101803.31;6430296;23;20021;-81
2023/04/19 10:51:35;;;;;;;0.47;0.47;;;;;;;13.12;39.07;101799.88;6428691;23;20016;-81
2023/04/19 10:54:32;;;;;;;0.60;0.60;;;;;;;13.32;40.37;101795.97;6410065;22;20073;-82
2023/04/19 10:57:04;;;;;;;0.40;0.40;;;;;;;13.21;38.79;101796.22;6440567;23;20058;-81
2023/04/19 10:59:43;;;;;;;1.45;0.82;;;;;;;13.26;39.60;101796.13;6403404;23;20048;-81
2023/04/19 11:02:23;;;;;;;0.52;0.52;;;;;;;13.22;39.11;101780.34;6402364;23;20015;-81
2023/04/19 11:04:54;;;;;;;0.75;0.43;;;;;;;13.23;38.83;101781.22;6401615;23;20017;-81
2023/04/19 11:07:24;;;;;;;0.68;0.68;;;;;;;13.26;36.75;101780.31;6404571;23;20495;-81
2023/04/19 11:09:55;;;;;;;0.75;0.50;;;;;;;13.38;38.60;101777.38;6430384;23;20068;-81
2023/04/19 11:12:25;;;;;;;0.20;0.20;;;;;;;13.52;38.98;101779.75;6401088;23;20017;-81
2023/04/19 11:14:58;;;;;;;0.28;0.28;;;;;;;13.63;36.27;101777.75;6430175;23;20028;-81
2023/04/19 11:17:30;;;;;;;0.20;0.20;;;;;;;13.68;36.77;101781.16;6401898;23;20008;-82
2023/04/19 11:20:07;;;;;;;0.30;0.30;;;;;;;13.61;35.90;101781.31;6405208;23;20539;-81
2023/04/19 11:22:43;;;;;;;0.28;0.28;;;;;;;13.60;34.99;101761.09;6404887;23;20015;-81
2023/04/19 11:25:21;;;;;;;0.30;0.30;;;;;;;13.60;34.99;101766.38;6403815;23;20322;-81
2023/04/19 11:27:52;;;;;;;0.52;0.52;;;;;;;13.74;34.20;101764.31;6441606;23;20059;-81
2023/04/19 11:30:29;;;;;;;0.20;0.20;;;;;;;13.79;35.47;101751.88;6400460;23;20042;-81
2023/04/19 11:33:00;;;;;;;0.20;0.20;;;;;;;13.82;34.82;101745.66;6427253;23;20027;-81
2023/04/19 11:35:30;;;;;;;0.55;0.55;;;;;;;13.81;32.76;101744.78;6425996;23;20036;-82
2023/04/19 11:38:01;;;;;;;0.20;0.20;;;;;;;13.75;31.56;101744.06;6401358;23;20021;-81
2023/04/19 11:40:32;;;;;;;0.40;0.40;;;;;;;13.76;32.44;101749.28;6421804;23;20900;-82
2023/04/19 11:43:03;;;;;;;0.40;0.40;;;;;;;13.85;33.61;101738.53;6397336;23;20009;-84